ADDS METAR Data INFO
IDs: Format: Raw Decoded Include TAF

Data at: 0635 UTC 15 Dec 2017

KGLY 150615Z AUTO 10SM FEW070 OVC080 00/M04 A3012 RMK AO2
KGLY 150555Z AUTO 00000KT 10SM FEW045 BKN070 OVC110 00/M03 A3013 RMK AO2
KGLY 150535Z AUTO 10SM BKN047 BKN095 OVC110 00/M04 A3013 RMK AO2
KGLY 150515Z AUTO 00000KT 10SM OVC047 00/M04 A3014 RMK AO2
KGLY 150455Z AUTO 00000KT 10SM OVC047 00/M04 A3014 RMK AO2
KGLY 150435Z AUTO 00000KT 10SM OVC049 00/M04 A3014 RMK AO2
KGLY 150415Z AUTO 10SM OVC049 00/M04 A3014 RMK AO2
KGLY 150355Z AUTO 22004KT 10SM OVC049 00/M04 A3014 RMK AO2
KGLY 150335Z AUTO 21004KT 10SM BKN049 OVC100 00/M04 A3014 RMK AO2
KGLY 150315Z AUTO 20004KT 10SM SCT049 OVC100 00/M04 A3013 RMK AO2
KGLY 150255Z AUTO 10SM OVC049 00/M04 A3014 RMK AO2
KGLY 150235Z AUTO 20003KT 10SM OVC049 01/M04 A3013 RMK AO2
KGLY 150215Z AUTO 19004KT 10SM OVC049 02/M04 A3013 RMK AO2
KGLY 150155Z AUTO 19003KT 10SM OVC049 01/M03 A3013 RMK AO2
KGLY 150135Z AUTO 18003KT 10SM OVC049 02/M04 A3013 RMK AO2
KGLY 150115Z AUTO 17003KT 10SM OVC049 02/M03 A3012 RMK AO2
KGLY 150055Z AUTO 19003KT 9SM OVC049 02/M04 A3013 RMK AO2
KGLY 150035Z AUTO 00000KT 9SM OVC049 02/M04 A3013 RMK AO2
KGLY 150015Z AUTO 00000KT 10SM OVC049 02/M04 A3012 RMK AO2
KGLY 142355Z AUTO 00000KT 10SM OVC049 02/M03 A3011 RMK AO2
KGLY 142335Z AUTO 10SM OVC049 02/M03 A3011 RMK AO2
KGLY 142315Z AUTO 00000KT 10SM BKN041 OVC049 03/M04 A3011 RMK AO2
KGLY 142255Z AUTO 00000KT 10SM OVC043 03/M04 A3011 RMK AO2
KGLY 142235Z AUTO 00000KT 10SM OVC043 03/M04 A3011 RMK AO2
KGLY 142215Z AUTO 00000KT 10SM OVC043 03/M04 A3010 RMK AO2
KGLY 142155Z AUTO 00000KT 10SM OVC041 03/M04 A3010 RMK AO2
KGLY 142135Z AUTO 10SM OVC041 03/M05 A3010 RMK AO2
KGLY 142115Z AUTO 00000KT 10SM OVC039 03/M05 A3010 RMK AO2
KGLY 142055Z AUTO 33003KT 10SM OVC039 03/M05 A3010 RMK AO2
KGLY 142035Z AUTO 31004KT 10SM OVC037 03/M05 A3010 RMK AO2
KGLY 142015Z AUTO 31005KT 10SM OVC037 03/M05 A3010 RMK AO2
KGLY 141955Z AUTO 32005KT 10SM OVC037 03/M05 A3010 RMK AO2
KGLY 141935Z AUTO 33005KT 10SM OVC039 03/M05 A3010 RMK AO2
KGLY 141915Z AUTO 33008KT 10SM OVC041 04/M05 A3010 RMK AO2
KGLY 141855Z AUTO 35007KT 10SM BKN039 OVC045 04/M05 A3009 RMK AO2
KGLY 141835Z AUTO 35005KT 10SM FEW037 OVC045 03/M05 A3010 RMK AO2
KGLY 141815Z AUTO 29006KT 10SM OVC043 03/M04 A3010 RMK AO2
KGLY 141755Z AUTO 29003KT 10SM OVC043 03/M05 A3010 RMK AO2
KGLY 141735Z AUTO 30004KT 10SM OVC043 03/M05 A3011 RMK AO2
KGLY 141715Z AUTO 03003KT 10SM OVC043 02/M05 A3012 RMK AO2
KGLY 141655Z AUTO 00000KT 10SM OVC043 02/M05 A3013 RMK AO2
KGLY 141635Z AUTO 05003KT 10SM OVC043 02/M05 A3013 RMK AO2
KGLY 141615Z AUTO 36006KT 10SM OVC041 02/M05 A3012 RMK AO2
KGLY 141555Z AUTO 02007KT 10SM OVC041 02/M05 A3012 RMK AO2
KGLY 141535Z AUTO 02007KT 10SM OVC041 02/M04 A3012 RMK AO2
KGLY 141515Z AUTO 03008KT 10SM OVC041 02/M05 A3011 RMK AO2
KGLY 141455Z AUTO 03007KT 10SM OVC041 01/M05 A3010 RMK AO2
KGLY 141435Z AUTO 01005KT 10SM OVC041 01/M04 A3009 RMK AO2
KGLY 141415Z AUTO 00000KT 10SM OVC041 00/M04 A3008 RMK AO2
KGLY 141355Z AUTO 00000KT 10SM OVC041 00/M04 A3007 RMK AO2
KGLY 141335Z AUTO 34003KT 10SM OVC041 00/M04 A3007 RMK AO2
KGLY 141315Z AUTO 35004KT 10SM OVC041 00/M04 A3006 RMK AO2
KGLY 141255Z AUTO 01005KT 10SM OVC041 00/M04 A3006 RMK AO2
KGLY 141235Z AUTO 02006KT 10SM OVC041 00/M04 A3005 RMK AO2
KGLY 141215Z AUTO 01005KT 10SM OVC041 01/M04 A3005 RMK AO2
KGLY 141155Z AUTO 02007KT 10SM OVC041 01/M04 A3003 RMK AO2
KGLY 141135Z AUTO 01005KT 10SM OVC041 02/M03 A3004 RMK AO2
KGLY 141115Z AUTO 04004KT 10SM OVC041 02/M03 A3003 RMK AO2
KGLY 141055Z AUTO 03004KT 10SM OVC039 02/M03 A3003 RMK AO2
KGLY 141035Z AUTO 01005KT 10SM OVC043 01/M02 A3002 RMK AO2
KGLY 141015Z AUTO 01003KT 10SM OVC045 02/M02 A3002 RMK AO2
KGLY 140955Z AUTO 00000KT 10SM OVC041 02/M02 A3001 RMK AO2
KGLY 140935Z AUTO 00000KT 10SM OVC037 02/M02 A3001 RMK AO2
KGLY 140915Z AUTO 34004KT 10SM OVC037 02/M02 A2999 RMK AO2
KGLY 140855Z AUTO 33005KT 10SM OVC037 02/M03 A2999 RMK AO2
KGLY 140835Z AUTO 31004KT 10SM OVC037 01/M03 A2998 RMK AO2
KGLY 140815Z AUTO 32005KT 10SM OVC037 00/M03 A2996 RMK AO2
KGLY 140755Z AUTO 34004KT 10SM OVC039 00/M04 A2996 RMK AO2
KGLY 140735Z AUTO 36005KT 10SM OVC037 M01/M04 A2995 RMK AO2
KGLY 140715Z AUTO 02007KT 10SM BKN037 M01/M04 A2994 RMK AO2
KGLY 140655Z AUTO 36006KT 10SM CLR 00/M04 A2994 RMK AO2
KGLY 140635Z AUTO 35004KT 10SM CLR 01/M03 A2995 RMK AO2
KGLY 140615Z AUTO 33005KT 10SM CLR 01/M03 A2995 RMK AO2
KGLY 140555Z AUTO 33006KT 10SM CLR 01/M03 A2996 RMK AO2
KGLY 140535Z AUTO 31004KT 10SM CLR 02/M03 A2997 RMK AO2
KGLY 140515Z AUTO 35006KT 10SM CLR 02/M03 A2996 RMK AO2
KGLY 140455Z AUTO 34005KT 10SM CLR 03/M03 A2996 RMK AO2
KGLY 140435Z AUTO 33006KT 10SM CLR 03/M02 A2996 RMK AO2
KGLY 140415Z AUTO 32005KT 10SM CLR 04/M02 A2995 RMK AO2
KGLY 140355Z AUTO 36012G16KT 10SM CLR 05/M02 A2993 RMK AO2
KGLY 140335Z AUTO 36013KT 10SM CLR 06/M02 A2991 RMK AO2
KGLY 140315Z AUTO 35011KT 10SM CLR 06/M02 A2990 RMK AO2
KGLY 140255Z AUTO 35011G14KT 10SM CLR 06/M02 A2988 RMK AO2
KGLY 140235Z AUTO 32007KT 10SM CLR 06/M03 A2988 RMK AO2
KGLY 140215Z AUTO 33007KT 10SM CLR 05/M03 A2987 RMK AO2
KGLY 140155Z AUTO 33007KT 10SM CLR 06/M04 A2986 RMK AO2
KGLY 140135Z AUTO 32007KT 10SM CLR 07/M04 A2985 RMK AO2
KGLY 140115Z AUTO 30005KT 10SM CLR 08/M04 A2985 RMK AO2
KGLY 140055Z AUTO 32004KT 10SM CLR 08/M04 A2983 RMK AO2
KGLY 140035Z AUTO 32006KT 10SM CLR 08/M04 A2982 RMK AO2
KGLY 140015Z AUTO 32005KT 10SM CLR 09/M04 A2981 RMK AO2
KGLY 132355Z AUTO 32005KT 10SM CLR 09/M04 A2980 RMK AO2
KGLY 132335Z AUTO 33008KT 10SM CLR 10/M04 A2980 RMK AO2
KGLY 132315Z AUTO 32008KT 10SM CLR 10/M03 A2979 RMK AO2
KGLY 132255Z AUTO 32008G17KT 10SM CLR 12/M03 A2978 RMK AO2
KGLY 132235Z AUTO 32010KT 10SM CLR 13/M03 A2978 RMK AO2
KGLY 132215Z AUTO 33012KT 10SM CLR 14/M02 A2977 RMK AO2
KGLY 132155Z AUTO 34012KT 10SM CLR 14/M02 A2976 RMK AO2
KGLY 132135Z AUTO 33016KT 10SM CLR 15/M02 A2975 RMK AO2
KGLY 132115Z AUTO 33011KT 10SM CLR 15/M02 A2975 RMK AO2
KGLY 132055Z AUTO 32014G21KT 10SM CLR 16/M02 A2974 RMK AO2
KGLY 132035Z AUTO 33015G23KT 10SM CLR 16/M02 A2974 RMK AO2
KGLY 132015Z AUTO 31020G26KT 10SM CLR 17/M02 A2974 RMK AO2
KGLY 131955Z AUTO 33015G23KT 9SM CLR 17/M01 A2972 RMK AO2
KGLY 131935Z AUTO 33020KT 10SM CLR 17/M02 A2972 RMK AO2
KGLY 131915Z AUTO 31010G16KT 10SM CLR 16/M03 A2972 RMK AO2
KGLY 131855Z AUTO 30016G22KT 9SM CLR 15/M03 A2972 RMK AO2